Time;durP1;ratioP1;P1;durP2;ratioP2;P2;SDS_P1;SDS_P2;PMS_P1;PMS_P2;Temp;Humidity;BMP_temperature;BMP_pressure;BME280_temperature;BME280_humidity;BME280_pressure;Samples;Min_cycle;Max_cycle;Signal;HPM_P1;HPM_P2
2023/06/27 00:01:16;;;;;;;3.75;1.20;;;23.30;69.20;;;;;;5074301;28;20135;-40
2023/06/27 00:03:42;;;;;;;2.55;1.33;;;24.00;69.60;;;;;;5073789;28;20636;-40
2023/06/27 00:06:09;;;;;;;2.35;1.10;;;22.70;59.80;;;;;;5074436;28;20044;-39
2023/06/27 00:08:36;;;;;;;2.42;1.33;;;;;;;;;;5073938;28;20515;-37
2023/06/27 00:11:03;;;;;;;1.60;1.20;;;;;;;;;;5074140;28;20472;-36
2023/06/27 00:13:30;;;;;;;2.47;1.40;;;22.80;69.70;;;;;;5073483;28;20390;-37
2023/06/27 00:16:00;;;;;;;1.58;1.20;;;22.80;69.30;;;;;;5075023;28;20136;-37
2023/06/27 00:18:34;;;;;;;1.92;1.10;;;22.80;69.90;;;;;;5074235;28;20055;-38
2023/06/27 00:21:00;;;;;;;3.47;1.20;;;22.80;69.40;;;;;;5074104;28;20052;-37
2023/06/27 00:23:33;;;;;;;1.67;1.20;;;;;;;;;;5073752;28;20398;-39
2023/06/27 00:26:00;;;;;;;2.22;1.30;;;;;;;;;;5073844;28;20044;-34
2023/06/27 00:28:26;;;;;;;2.92;1.38;;;22.50;68.80;;;;;;5073813;28;20048;-38
2023/06/27 00:30:53;;;;;;;2.13;1.17;;;23.50;68.40;;;;;;5074932;28;20735;-38
2023/06/27 00:33:21;;;;;;;2.50;1.30;;;23.00;56.90;;;;;;5088402;28;20052;-37
2023/06/27 00:35:48;;;;;;;3.58;1.45;;;23.20;55.60;;;;;;5093904;28;20127;-39
2023/06/27 00:38:15;;;;;;;2.67;1.25;;;23.00;69.40;;;;;;5073501;28;20581;-36
2023/06/27 00:40:41;;;;;;;3.35;1.50;;;22.30;68.80;;;;;;5073550;28;20131;-40
2023/06/27 00:43:08;;;;;;;1.98;1.20;;;;;;;;;;5073138;28;20393;-35
2023/06/27 00:45:35;;;;;;;2.38;1.30;;;22.50;69.30;;;;;;5073492;28;20504;-38
2023/06/27 00:48:02;;;;;;;2.42;1.25;;;22.70;58.50;;;;;;5073640;28;20136;-39
2023/06/27 00:50:30;;;;;;;3.35;1.50;;;23.20;55.00;;;;;;5073602;28;20055;-39
2023/06/27 00:52:57;;;;;;;2.15;1.20;;;22.70;68.00;;;;;;5073137;28;20065;-36
2023/06/27 00:55:24;;;;;;;3.38;1.20;;;22.50;69.40;;;;;;5093509;28;20123;-39
2023/06/27 00:57:51;;;;;;;2.63;1.20;;;22.40;56.50;;;;;;5093861;28;20139;-37
2023/06/27 01:00:18;;;;;;;3.28;1.40;;;23.00;69.60;;;;;;5093632;28;20234;-37
2023/06/27 01:02:46;;;;;;;2.03;1.20;;;22.30;60.30;;;;;;5091421;28;20127;-37
2023/06/27 01:05:13;;;;;;;1.67;1.10;;;;;;;;;;5093144;28;20515;-36
2023/06/27 01:07:43;;;;;;;3.60;1.60;;;21.80;69.50;;;;;;5093246;28;20403;-40
2023/06/27 01:10:12;;;;;;;2.22;1.20;;;23.40;69.90;;;;;;5093220;28;20542;-39
2023/06/27 01:12:41;;;;;;;3.65;1.45;;;23.30;60.10;;;;;;5093017;28;20086;-36
2023/06/27 01:15:09;;;;;;;2.03;1.20;;;23.80;69.80;;;;;;5093078;28;20059;-39
2023/06/27 01:17:36;;;;;;;2.88;1.40;;;;;;;;;;5092470;28;20044;-36
2023/06/27 01:20:04;;;;;;;2.33;1.25;;;22.70;69.30;;;;;;5093124;28;20135;-38
2023/06/27 01:22:33;;;;;;;2.88;1.40;;;22.80;53.20;;;;;;5093013;28;20126;-35
2023/06/27 01:25:02;;;;;;;2.03;1.27;;;23.10;67.40;;;;;;5092125;28;20135;-37
2023/06/27 01:27:29;;;;;;;3.40;1.40;;;22.70;69.60;;;;;;5092809;28;20050;-36
2023/06/27 01:29:57;;;;;;;2.60;1.20;;;22.70;66.40;;;;;;5092977;28;20458;-37
2023/06/27 01:32:24;;;;;;;2.00;1.27;;;;;;;;;;5092632;28;20055;-37
2023/06/27 01:34:53;;;;;;;3.65;1.35;;;22.30;69.10;;;;;;5092676;28;20131;-39
2023/06/27 01:37:22;;;;;;;2.30;1.40;;;23.00;53.40;;;;;;5092148;28;20134;-35
2023/06/27 01:39:51;;;;;;;3.35;1.27;;;22.50;69.30;;;;;;5092786;28;20044;-39
2023/06/27 01:42:20;;;;;;;1.42;1.10;;;22.90;58.20;;;;;;5078141;28;20127;-36
2023/06/27 01:44:47;;;;;;;2.10;1.33;;;22.70;69.30;;;;;;5073061;28;20478;-38
2023/06/27 01:47:14;;;;;;;5.07;1.48;;;22.80;69.40;;;;;;5072189;28;20689;-39
2023/06/27 01:49:41;;;;;;;2.13;1.40;;;22.10;69.00;;;;;;5076302;28;20048;-37
2023/06/27 01:52:08;;;;;;;2.45;1.25;;;22.40;69.30;;;;;;5092402;28;20478;-37
2023/06/27 01:54:35;;;;;;;2.78;1.30;;;;;;;;;;5092163;28;20560;-34
2023/06/27 01:57:02;;;;;;;3.22;1.40;;;;;;;;;;5091832;28;20474;-39
2023/06/27 01:59:30;;;;;;;3.35;1.50;;;23.70;69.80;;;;;;5092468;28;20463;-37
2023/06/27 02:01:57;;;;;;;3.50;1.35;;;22.90;60.40;;;;;;5092189;28;20058;-37
2023/06/27 02:04:24;;;;;;;2.25;1.20;;;22.50;69.60;;;;;;5092136;28;20052;-39
2023/06/27 02:06:51;;;;;;;1.60;1.30;;;;;;;;;;5091935;28;20050;-38
2023/06/27 02:09:18;;;;;;;3.40;1.60;;;;;;;;;;5092115;28;20051;-39
2023/06/27 02:11:45;;;;;;;2.08;1.42;;;;;;;;;;5092125;28;20584;-37
2023/06/27 02:14:12;;;;;;;2.42;1.35;;;23.10;69.60;;;;;;5090142;28;20094;-37
2023/06/27 02:16:41;;;;;;;2.03;1.20;;;21.90;52.70;;;;;;5091796;28;20134;-38
2023/06/27 02:19:08;;;;;;;2.45;1.38;;;22.80;63.30;;;;;;5091900;28;20127;-40
2023/06/27 02:21:34;;;;;;;1.40;1.20;;;22.50;69.30;;;;;;5092121;28;20468;-37
2023/06/27 02:24:01;;;;;;;2.15;1.20;;;;;;;;;;5091797;28;20044;-35
2023/06/27 02:26:28;;;;;;;2.35;1.50;;;22.60;69.70;;;;;;5091894;28;20044;-35
2023/06/27 02:28:55;;;;;;;1.60;1.38;;;;;;;;;;5090322;28;20135;-36
2023/06/27 02:31:22;;;;;;;2.78;1.30;;;22.80;69.40;;;;;;5091837;28;20130;-40
2023/06/27 02:33:50;;;;;;;2.28;1.40;;;22.90;70.00;;;;;;5091851;28;20059;-35
2023/06/27 02:36:17;;;;;;;3.65;1.50;;;23.00;70.50;;;;;;5091161;28;20123;-39
2023/06/27 02:38:44;;;;;;;1.40;1.10;;;22.10;57.60;;;;;;5091777;28;20420;-40
2023/06/27 02:41:10;;;;;;;2.80;1.55;;;22.30;69.70;;;;;;5092184;28;20048;-37
2023/06/27 02:43:39;;;;;;;2.53;1.30;;;;;;;;;;5091480;28;20469;-39
2023/06/27 02:46:06;;;;;;;1.52;1.20;;;;;;;;;;5090932;28;20059;-37
2023/06/27 02:48:33;;;;;;;2.58;1.50;;;;;;;;;;5091937;28;20052;-37
2023/06/27 02:51:01;;;;;;;2.80;1.60;;;23.30;55.80;;;;;;5091764;28;20131;-37
2023/06/27 02:53:28;;;;;;;2.17;1.27;;;;;;;;;;5091239;28;20574;-36
2023/06/27 02:55:57;;;;;;;2.22;1.40;;;;;;;;;;5091697;28;20390;-39
2023/06/27 02:58:24;;;;;;;3.50;1.40;;;;;;;;;;5091599;28;20056;-39
2023/06/27 03:00:51;;;;;;;2.00;1.38;;;22.20;54.40;;;;;;5091565;28;20131;-37
2023/06/27 03:03:18;;;;;;;2.47;1.67;;;23.00;69.70;;;;;;5071554;28;20163;-38
2023/06/27 03:05:45;;;;;;;4.50;1.60;;;;;;;;;;5071319;28;20052;-39
2023/06/27 03:08:13;;;;;;;3.83;1.38;;;22.90;63.90;;;;;;5071506;28;20053;-38
2023/06/27 03:10:39;;;;;;;2.75;1.48;;;23.40;70.30;;;;;;5071132;28;20131;-38
2023/06/27 03:13:06;;;;;;;2.38;1.50;;;22.40;69.90;;;;;;5070965;28;20049;-41
2023/06/27 03:15:33;;;;;;;2.42;1.48;;;;;;;;;;5071317;28;20053;-37
2023/06/27 03:18:00;;;;;;;3.35;1.40;;;22.20;69.40;;;;;;5078980;28;20048;-37
2023/06/27 03:20:27;;;;;;;2.72;1.40;;;;;;;;;;5091470;28;20050;-37
2023/06/27 03:22:54;;;;;;;2.50;1.33;;;22.40;70.10;;;;;;5090975;28;20143;-38
2023/06/27 03:25:22;;;;;;;2.30;1.40;;;22.20;53.20;;;;;;5091230;28;20507;-38
2023/06/27 03:27:48;;;;;;;3.17;1.58;;;22.20;69.80;;;;;;5091237;28;20086;-37
2023/06/27 03:30:15;;;;;;;2.70;1.40;;;;;;;;;;5091419;28;20044;-36
2023/06/27 03:32:42;;;;;;;2.35;1.20;;;22.00;69.20;;;;;;5088788;28;20074;-39
2023/06/27 03:35:09;;;;;;;3.00;1.40;;;23.30;70.00;;;;;;5083132;28;20127;-37
2023/06/27 03:37:36;;;;;;;4.00;1.60;;;22.60;64.20;;;;;;5085429;28;20127;-36
2023/06/27 03:40:03;;;;;;;1.92;1.30;;;22.00;69.20;;;;;;5090977;28;20507;-39
2023/06/27 03:42:31;;;;;;;2.88;1.48;;;21.90;70.10;;;;;;5090785;28;20515;-37
2023/06/27 03:44:59;;;;;;;2.35;1.58;;;22.10;69.70;;;;;;5091091;28;20127;-39
2023/06/27 03:47:25;;;;;;;2.60;1.48;;;23.30;70.00;;;;;;5080410;28;20076;-39
2023/06/27 03:49:52;;;;;;;3.17;1.50;;;;;;;;;;5074543;28;20132;-38
2023/06/27 03:52:19;;;;;;;3.05;1.42;;;22.50;69.60;;;;;;5079319;28;20044;-37
2023/06/27 03:54:46;;;;;;;2.90;1.50;;;;;;;;;;5094457;28;20044;-37
2023/06/27 03:57:13;;;;;;;2.47;1.58;;;;;;;;;;5094918;28;20115;-38
2023/06/27 03:59:42;;;;;;;1.50;1.20;;;22.30;53.10;;;;;;5094746;28;20135;-35
2023/06/27 04:02:08;;;;;;;3.60;1.40;;;21.80;64.70;;;;;;5092222;28;20112;-39
2023/06/27 04:04:36;;;;;;;3.05;1.30;;;;;;;;;;5085842;28;20136;-35
2023/06/27 04:07:03;;;;;;;2.80;1.38;;;;;;;;;;5074169;28;20048;-38
2023/06/27 04:09:29;;;;;;;2.42;1.42;;;22.50;70.70;;;;;;5074402;28;20131;-38
2023/06/27 04:11:58;;;;;;;2.65;1.48;;;22.40;69.80;;;;;;5074122;28;20668;-40
2023/06/27 04:14:25;;;;;;;2.28;1.30;;;;;;;;;;5073842;28;20114;-39
2023/06/27 04:16:53;;;;;;;2.95;1.60;;;22.20;53.20;;;;;;5073895;28;20508;-36
2023/06/27 04:19:20;;;;;;;3.20;1.40;;;22.20;70.10;;;;;;5083149;28;20492;-37
2023/06/27 04:21:47;;;;;;;4.05;1.48;;;;;;;;;;5094183;28;20055;-36
2023/06/27 04:24:14;;;;;;;2.67;1.38;;;22.40;70.70;;;;;;5094087;28;20048;-40
2023/06/27 04:26:42;;;;;;;2.08;1.40;;;;;;;;;;5094090;28;20131;-37
2023/06/27 04:29:09;;;;;;;3.58;1.58;;;21.90;55.50;;;;;;5094173;28;20051;-40
2023/06/27 04:31:35;;;;;;;2.78;1.63;;;22.90;68.00;;;;;;5093923;28;20076;-36
2023/06/27 04:34:03;;;;;;;5.25;1.60;;;22.30;70.30;;;;;;5093704;28;20048;-39
2023/06/27 04:36:30;;;;;;;2.35;1.60;;;;;;;;;;5092581;28;20047;-37
2023/06/27 04:38:58;;;;;;;2.28;1.52;;;23.20;70.50;;;;;;5093697;28;20052;-31
2023/06/27 04:41:29;;;;;;;1.75;1.40;;;;;;;;;;5093822;28;20141;-35
2023/06/27 04:43:57;;;;;;;3.15;1.40;;;;;;;;;;5094095;28;20052;-35
2023/06/27 04:46:26;;;;;;;3.30;1.30;;;21.80;63.20;;;;;;5093065;28;20044;-37
2023/06/27 04:48:56;;;;;;;2.22;1.20;;;;;;;;;;5083064;28;20490;-37
2023/06/27 04:51:25;;;;;;;2.95;1.63;;;21.30;70.50;;;;;;5082470;28;20063;-32
2023/06/27 04:53:52;;;;;;;2.13;1.35;;;;;;;;;;5083708;28;20044;-30
2023/06/27 04:56:18;;;;;;;2.85;1.52;;;21.10;69.60;;;;;;5083100;28;20214;-31
2023/06/27 04:58:45;;;;;;;2.25;1.40;;;22.00;71.00;;;;;;5082206;28;20048;-31
2023/06/27 05:01:12;;;;;;;2.33;1.50;;;;;;;;;;5082494;28;20127;-34
2023/06/27 05:03:39;;;;;;;2.85;1.73;;;22.50;70.90;;;;;;5081770;28;20048;-31
2023/06/27 05:06:06;;;;;;;4.38;1.63;;;;;;;;;;5081326;28;20422;-37
2023/06/27 05:08:36;;;;;;;3.70;1.70;;;21.60;69.70;;;;;;5078457;28;20131;-31
2023/06/27 05:11:03;;;;;;;3.50;1.42;;;;;;;;;;5079818;28;20127;-34
2023/06/27 05:13:30;;;;;;;3.42;1.60;;;21.80;70.20;;;;;;5072366;28;20123;-31
2023/06/27 05:15:57;;;;;;;2.30;1.60;;;;;;;;;;5071996;28;20041;-34
2023/06/27 05:18:24;;;;;;;3.13;1.65;;;22.10;70.90;;;;;;5084260;28;20051;-31
2023/06/27 05:20:51;;;;;;;4.38;1.70;;;;;;;;;;5079301;28;20051;-35
2023/06/27 05:23:18;;;;;;;2.15;1.48;;;21.50;66.80;;;;;;5081120;28;20075;-32
2023/06/27 05:25:46;;;;;;;3.28;1.60;;;22.10;67.00;;;;;;5081309;28;20501;-33
2023/06/27 05:28:13;;;;;;;4.55;1.50;;;22.30;65.40;;;;;;5084105;28;20050;-33
2023/06/27 05:30:40;;;;;;;2.50;1.60;;;23.10;71.30;;;;;;5081452;28;20048;-31
2023/06/27 05:33:06;;;;;;;3.08;1.60;;;21.70;70.70;;;;;;5089338;28;20158;-31
2023/06/27 05:35:33;;;;;;;2.40;1.48;;;21.80;63.20;;;;;;5092729;28;20459;-31
2023/06/27 05:38:00;;;;;;;3.17;1.60;;;22.40;71.00;;;;;;5092259;28;20039;-31
2023/06/27 05:40:28;;;;;;;6.22;1.88;;;22.50;55.90;;;;;;5076998;28;20412;-30
2023/06/27 05:42:56;;;;;;;3.33;1.60;;;21.80;70.90;;;;;;5071702;28;20054;-31
2023/06/27 05:45:22;;;;;;;2.75;1.50;;;21.90;71.20;;;;;;5072644;28;20048;-31
2023/06/27 05:47:49;;;;;;;3.33;1.60;;;;;;;;;;5072476;28;20409;-35
2023/06/27 05:50:16;;;;;;;1.90;1.40;;;22.00;71.00;;;;;;5072301;28;20132;-31
2023/06/27 05:52:43;;;;;;;4.60;1.50;;;21.80;71.90;;;;;;5072047;28;20051;-31
2023/06/27 05:55:10;;;;;;;2.65;1.52;;;22.00;60.50;;;;;;5073589;28;20135;-32
2023/06/27 05:57:36;;;;;;;2.60;1.50;;;22.30;71.40;;;;;;5072427;28;20127;-31
2023/06/27 06:00:10;;;;;;;3.83;1.60;;;22.00;71.20;;;;;;5072336;28;20127;-31
2023/06/27 06:02:37;;;;;;;2.55;1.42;;;22.10;71.60;;;;;;5072020;28;20059;-31
2023/06/27 06:05:05;;;;;;;2.53;1.50;;;22.00;55.10;;;;;;5072161;28;20059;-36
2023/06/27 06:07:32;;;;;;;2.45;1.48;;;22.70;71.80;;;;;;5072139;28;20577;-31
2023/06/27 06:09:58;;;;;;;1.98;1.40;;;22.00;62.70;;;;;;5071557;28;20135;-33
2023/06/27 06:12:25;;;;;;;3.10;1.50;;;22.30;72.50;;;;;;5077136;28;20123;-31
2023/06/27 06:14:52;;;;;;;3.95;1.48;;;21.30;71.60;;;;;;5091556;28;20044;-31
2023/06/27 06:17:20;;;;;;;2.28;1.40;;;21.90;55.30;;;;;;5092065;28;20480;-34
2023/06/27 06:19:47;;;;;;;3.15;1.60;;;;;;;;;;5091874;28;20135;-34
2023/06/27 06:22:13;;;;;;;3.78;1.50;;;21.50;71.40;;;;;;5092021;28;20056;-31
2023/06/27 06:24:40;;;;;;;2.42;1.75;;;22.60;72.30;;;;;;5091707;28;20679;-31
2023/06/27 06:27:07;;;;;;;3.17;1.48;;;21.90;70.60;;;;;;5090501;28;20126;-31
2023/06/27 06:29:34;;;;;;;2.85;1.50;;;22.80;73.00;;;;;;5092078;28;20079;-31
2023/06/27 06:32:01;;;;;;;3.30;1.65;;;22.10;56.60;;;;;;5088072;28;20127;-33
2023/06/27 06:34:29;;;;;;;3.80;1.40;;;21.80;72.00;;;;;;5080146;28;20508;-31
2023/06/27 06:36:56;;;;;;;3.05;1.45;;;22.80;73.00;;;;;;5080256;28;20136;-31
2023/06/27 06:39:23;;;;;;;3.20;1.30;;;;;;;;;;5091717;28;20123;-35
2023/06/27 06:41:49;;;;;;;1.98;1.40;;;21.30;71.70;;;;;;5092157;28;20054;-31
2023/06/27 06:44:16;;;;;;;2.53;1.30;;;22.50;72.80;;;;;;5080280;28;20052;-32
2023/06/27 06:46:43;;;;;;;1.77;1.20;;;;;;;;;;5089661;28;20412;-38
2023/06/27 06:49:10;;;;;;;2.60;1.42;;;22.00;71.80;;;;;;5072197;28;20076;-32
2023/06/27 06:51:38;;;;;;;3.28;1.40;;;21.50;72.50;;;;;;5071685;28;20078;-31
2023/06/27 06:54:05;;;;;;;2.30;1.30;;;;;;;;;;5071022;28;20087;-32
2023/06/27 06:56:32;;;;;;;2.83;1.20;;;21.70;70.20;;;;;;5071742;28;20044;-32
2023/06/27 06:58:59;;;;;;;3.53;1.38;;;21.10;71.30;;;;;;5072661;28;20484;-31
2023/06/27 07:01:28;;;;;;;3.20;1.60;;;22.50;72.40;;;;;;5090205;28;20058;-32
2023/06/27 07:03:55;;;;;;;3.20;1.50;;;21.60;59.30;;;;;;5088206;28;20048;-33
2023/06/27 07:06:21;;;;;;;2.13;1.20;;;22.90;72.50;;;;;;5071774;28;20136;-31
2023/06/27 07:08:49;;;;;;;2.33;1.50;;;22.00;61.40;;;;;;5071768;28;20072;-32
2023/06/27 07:11:16;;;;;;;2.47;1.30;;;21.90;62.50;;;;;;5071737;28;20064;-34
2023/06/27 07:13:43;;;;;;;2.55;1.40;;;23.10;72.30;;;;;;5071151;28;20560;-31
2023/06/27 07:16:10;;;;;;;2.17;1.27;;;22.10;71.80;;;;;;5072750;28;20646;-31
2023/06/27 07:18:36;;;;;;;2.15;1.20;;;21.80;61.90;;;;;;5071491;28;20135;-32
2023/06/27 07:21:03;;;;;;;2.38;1.20;;;21.90;71.70;;;;;;5071486;28;20049;-31
2023/06/27 07:23:30;;;;;;;3.40;1.20;;;;;;;;;;5074288;28;20160;-31
2023/06/27 07:25:58;;;;;;;2.75;1.33;;;22.50;71.70;;;;;;5075515;28;20056;-32
2023/06/27 07:28:25;;;;;;;2.58;1.20;;;22.40;71.70;;;;;;5089620;28;20165;-31
2023/06/27 07:30:52;;;;;;;2.50;1.40;;;21.10;71.20;;;;;;5095588;28;20052;-31
2023/06/27 07:33:19;;;;;;;3.50;1.15;;;;;;;;;;5092415;28;20127;-36
2023/06/27 07:35:46;;;;;;;4.15;1.30;;;22.00;71.60;;;;;;5095363;28;20134;-32
2023/06/27 07:38:16;;;;;;;2.28;1.23;;;;;;;;;;5088467;28;20416;-36
2023/06/27 07:40:43;;;;;;;2.75;1.10;;;22.40;72.50;;;;;;5078814;28;20045;-32
2023/06/27 07:43:11;;;;;;;1.73;1.17;;;22.60;70.10;;;;;;5074809;28;20048;-34
2023/06/27 07:45:38;;;;;;;1.98;1.20;;;;;;;;;;5074846;28;20078;-32
2023/06/27 07:48:06;;;;;;;3.22;1.42;;;22.10;56.40;;;;;;5080659;28;20052;-34
2023/06/27 07:50:32;;;;;;;2.70;1.20;;;22.60;72.50;;;;;;5083950;28;20048;-32
2023/06/27 07:52:59;;;;;;;2.60;1.50;;;;;;;;;;5074360;28;20074;-40
2023/06/27 07:55:26;;;;;;;1.40;1.08;;;22.50;71.80;;;;;;5079453;28;20127;-33
2023/06/27 07:57:53;;;;;;;2.38;1.10;;;22.30;71.50;;;;;;5085878;28;20139;-32
2023/06/27 08:00:22;;;;;;;2.38;1.30;;;22.30;55.10;;;;;;5086771;28;20043;-34
2023/06/27 08:02:49;;;;;;;4.85;1.25;;;22.10;71.70;;;;;;5085540;28;20048;-31
2023/06/27 08:05:16;;;;;;;2.15;1.10;;;22.20;60.60;;;;;;5089842;28;20050;-33
2023/06/27 08:07:42;;;;;;;2.95;1.02;;;21.90;71.80;;;;;;5076078;28;20055;-30
2023/06/27 08:10:11;;;;;;;1.95;1.10;;;21.60;64.70;;;;;;5081738;28;20135;-33
2023/06/27 08:12:38;;;;;;;1.95;1.10;;;22.30;62.40;;;;;;5074248;28;20048;-32
2023/06/27 08:15:06;;;;;;;3.10;1.20;;;22.40;55.40;;;;;;5074261;28;20131;-35
2023/06/27 08:17:34;;;;;;;2.35;1.10;;;22.80;72.00;;;;;;5086632;28;20128;-31
2023/06/27 08:20:01;;;;;;;2.85;1.00;;;21.70;71.00;;;;;;5074424;28;20052;-31
2023/06/27 08:22:27;;;;;;;2.33;1.20;;;22.30;63.30;;;;;;5084840;28;20138;-31
2023/06/27 08:24:54;;;;;;;3.28;1.30;;;;;;;;;;5087838;28;20045;-34
2023/06/27 08:27:21;;;;;;;1.83;1.10;;;23.30;72.60;;;;;;5084168;28;20071;-31
2023/06/27 08:29:48;;;;;;;2.03;1.30;;;22.50;71.70;;;;;;5082930;28;20054;-32
2023/06/27 08:32:15;;;;;;;1.35;1.10;;;;;;;;;;5084372;28;20408;-35
2023/06/27 08:34:43;;;;;;;4.15;1.08;;;22.70;71.60;;;;;;5083764;28;20467;-31
2023/06/27 08:37:10;;;;;;;2.10;1.02;;;22.00;71.50;;;;;;5081373;28;20079;-31
2023/06/27 08:39:37;;;;;;;2.20;1.20;;;22.50;62.50;;;;;;5083483;28;20131;-34
2023/06/27 08:42:04;;;;;;;1.70;0.85;;;22.20;56.00;;;;;;5074686;28;20078;-33
2023/06/27 08:44:31;;;;;;;2.83;1.15;;;;;;;;;;5084022;28;20067;-35
2023/06/27 08:47:01;;;;;;;2.00;1.10;;;22.80;72.10;;;;;;5073822;28;20052;-32
2023/06/27 08:49:28;;;;;;;1.25;0.90;;;22.50;71.10;;;;;;5073557;28;20127;-32
2023/06/27 08:51:57;;;;;;;2.80;1.02;;;22.60;55.10;;;;;;5073623;28;20049;-35
2023/06/27 08:54:26;;;;;;;2.22;1.00;;;23.10;72.10;;;;;;5073298;28;20048;-32
2023/06/27 08:56:53;;;;;;;2.35;1.10;;;23.00;71.50;;;;;;5073462;28;20131;-31
2023/06/27 08:59:20;;;;;;;3.22;0.98;;;23.10;63.10;;;;;;5084596;28;20040;-33
2023/06/27 09:01:48;;;;;;;2.47;0.98;;;22.70;55.10;;;;;;5074803;28;20044;-37
2023/06/27 09:04:14;;;;;;;0.85;0.82;;;23.80;71.70;;;;;;5084304;28;20044;-32
2023/06/27 09:06:41;;;;;;;2.60;1.17;;;23.30;71.40;;;;;;5073314;28;20131;-33
2023/06/27 09:09:09;;;;;;;1.95;1.10;;;22.50;66.00;;;;;;5088695;28;20048;-39
2023/06/27 09:11:36;;;;;;;2.55;1.10;;;22.80;64.90;;;;;;5072871;28;20147;-39
2023/06/27 09:14:03;;;;;;;3.35;1.10;;;22.70;71.50;;;;;;5085366;28;20056;-41
2023/06/27 09:16:30;;;;;;;4.20;1.10;;;;;;;;;;5092630;28;20046;-37
2023/06/27 09:18:57;;;;;;;1.52;1.15;;;22.80;71.00;;;;;;5093503;28;20051;-39
2023/06/27 09:21:23;;;;;;;1.85;1.08;;;21.80;70.70;;;;;;5089435;28;20574;-41
2023/06/27 09:23:50;;;;;;;7.95;1.10;;;22.90;60.40;;;;;;5072433;28;20059;-40
2023/06/27 09:26:18;;;;;;;2.85;1.13;;;23.10;71.50;;;;;;5073200;28;20048;-41
2023/06/27 09:28:46;;;;;;;1.85;1.00;;;22.80;70.60;;;;;;5085877;28;20537;-41
2023/06/27 09:31:14;;;;;;;1.88;1.00;;;23.40;71.40;;;;;;5096080;28;20138;-40
2023/06/27 09:33:41;;;;;;;5.57;1.23;;;23.10;55.30;;;;;;5092503;28;20401;-38
2023/06/27 09:36:08;;;;;;;2.65;1.00;;;23.00;71.40;;;;;;5092419;28;20056;-40
2023/06/27 09:38:35;;;;;;;4.30;1.20;;;23.80;61.00;;;;;;5084396;28;20055;-39
2023/06/27 09:41:02;;;;;;;3.35;1.15;;;23.10;70.50;;;;;;5092890;28;20139;-38
2023/06/27 09:43:33;;;;;;;2.08;1.17;;;22.90;70.30;;;;;;5092704;28;20048;-40
2023/06/27 09:46:00;;;;;;;2.40;1.05;;;23.20;58.80;;;;;;5091834;28;20048;-41
2023/06/27 09:48:27;;;;;;;1.67;0.90;;;;;;;;;;5083257;28;20040;-36
2023/06/27 09:50:58;;;;;;;3.17;0.95;;;23.40;70.50;;;;;;5080872;28;20382;-39
2023/06/27 09:53:25;;;;;;;3.28;1.10;;;23.00;60.30;;;;;;5069504;28;20050;-39
2023/06/27 09:55:57;;;;;;;1.98;1.05;;;22.90;70.70;;;;;;5071716;28;20056;-38
2023/06/27 09:58:27;;;;;;;2.67;0.90;;;23.60;65.90;;;;;;5071206;28;20041;-41
2023/06/27 10:00:56;;;;;;;2.92;1.05;;;22.80;70.90;;;;;;5071942;28;20055;-40
2023/06/27 10:03:24;;;;;;;1.13;0.82;;;;;;;;;;5071393;28;20040;-36
2023/06/27 10:05:50;;;;;;;2.65;0.90;;;23.00;70.50;;;;;;5074701;28;20048;-39
2023/06/27 10:08:17;;;;;;;2.35;1.15;;;;;;;;;;5072077;28;20045;-37
2023/06/27 10:10:44;;;;;;;3.85;1.10;;;23.10;58.00;;;;;;5072988;28;20051;-41
2023/06/27 10:13:11;;;;;;;2.53;1.10;;;23.10;70.40;;;;;;5072004;28;20123;-40
2023/06/27 10:15:38;;;;;;;1.45;1.00;;;23.40;68.50;;;;;;5073699;28;20048;-40
2023/06/27 10:18:06;;;;;;;1.27;0.95;;;22.80;70.50;;;;;;5092268;28;20040;-41
2023/06/27 10:20:33;;;;;;;1.42;0.95;;;23.00;65.00;;;;;;5092101;28;20052;-39
2023/06/27 10:23:00;;;;;;;3.55;1.00;;;;;;;;;;5092048;28;20443;-35
2023/06/27 10:25:27;;;;;;;1.80;0.90;;;22.70;70.30;;;;;;5083530;28;20123;-41
2023/06/27 10:28:06;;;;;;;1.77;1.10;;;23.00;70.20;;;;;;5071742;28;20048;-41
2023/06/27 10:30:35;;;;;;;0.95;0.80;;;24.30;71.10;;;;;;5090169;28;20127;-41
2023/06/27 10:33:10;;;;;;;0.95;0.80;;;23.50;71.50;;;;;;5091730;28;20048;-39
2023/06/27 10:35:39;;;;;;;2.92;1.05;;;22.80;70.50;;;;;;5092279;28;20075;-40
2023/06/27 10:38:08;;;;;;;2.22;1.00;;;23.30;70.50;;;;;;5091388;28;20127;-40
2023/06/27 10:41:13;;;;;;;2.47;0.90;;;23.20;70.50;;;;;;5091476;28;20043;-40
2023/06/27 10:43:40;;;;;;;1.42;0.88;;;23.10;71.30;;;;;;5071480;28;20052;-41
2023/06/27 10:46:08;;;;;;;1.52;0.80;;;22.90;70.40;;;;;;5071800;28;20056;-40
2023/06/27 10:48:45;;;;;;;1.08;0.70;;;23.60;54.90;;;;;;5071466;28;20211;-34
2023/06/27 10:51:15;;;;;;;0.95;0.80;;;23.20;70.30;;;;;;5071629;28;20048;-40
2023/06/27 10:53:43;;;;;;;1.65;0.80;;;22.80;71.10;;;;;;5070127;28;20075;-40
2023/06/27 10:56:16;;;;;;;2.13;0.95;;;22.90;70.00;;;;;;5072634;28;20053;-40
2023/06/27 10:58:44;;;;;;;1.65;0.95;;;23.20;63.80;;;;;;5079798;28;20040;-37
2023/06/27 11:01:12;;;;;;;2.33;1.10;;;23.10;57.10;;;;;;5075893;28;20056;-37
2023/06/27 11:03:42;;;;;;;0.98;0.88;;;23.10;58.20;;;;;;5075409;28;20052;-38
2023/06/27 11:06:08;;;;;;;1.77;0.77;;;23.20;70.20;;;;;;5075424;28;20135;-40
2023/06/27 11:08:35;;;;;;;1.45;0.90;;;;;;;;;;5075499;28;20151;-39
2023/06/27 11:11:04;;;;;;;1.23;0.80;;;22.50;70.70;;;;;;5075279;28;20052;-38
2023/06/27 11:13:31;;;;;;;1.90;0.90;;;24.30;70.60;;;;;;5085183;28;20071;-40
2023/06/27 11:15:58;;;;;;;1.30;0.90;;;23.20;70.10;;;;;;5075416;28;20054;-40
2023/06/27 11:18:26;;;;;;;1.48;0.90;;;23.30;70.30;;;;;;5075171;28;20131;-39
2023/06/27 11:20:54;;;;;;;1.13;0.73;;;23.60;70.40;;;;;;5075583;28;20045;-40
2023/06/27 11:23:22;;;;;;;1.35;0.90;;;22.30;69.80;;;;;;5075119;28;20382;-40
2023/06/27 11:25:48;;;;;;;1.23;0.80;;;22.90;56.10;;;;;;5075203;28;20091;-36
2023/06/27 11:28:17;;;;;;;2.15;0.85;;;23.00;57.10;;;;;;5083931;28;20055;-36
2023/06/27 11:30:44;;;;;;;2.42;0.98;;;;;;;;;;5080046;28;20412;-38
2023/06/27 11:33:12;;;;;;;1.63;0.90;;;23.10;70.80;;;;;;5085262;28;20143;-40
2023/06/27 11:35:40;;;;;;;1.17;0.80;;;23.50;70.80;;;;;;5085319;28;20048;-40
2023/06/27 11:38:08;;;;;;;1.35;1.17;;;24.50;66.10;;;;;;5088757;28;20050;-38
2023/06/27 11:40:35;;;;;;;1.73;0.90;;;23.20;70.10;;;;;;5085787;28;20572;-39
2023/06/27 11:43:02;;;;;;;1.25;0.90;;;23.10;70.60;;;;;;5080198;28;20173;-41
2023/06/27 11:45:30;;;;;;;1.10;0.70;;;23.20;62.80;;;;;;5082948;28;20053;-40
2023/06/27 11:47:57;;;;;;;1.38;0.77;;;23.20;70.20;;;;;;5081949;28;20053;-40
2023/06/27 11:50:24;;;;;;;1.83;0.90;;;23.10;71.20;;;;;;5075000;28;20048;-40
2023/06/27 11:52:51;;;;;;;3.00;0.90;;;23.10;68.00;;;;;;5074638;28;20051;-40
2023/06/27 11:55:20;;;;;;;1.45;0.80;;;23.50;70.40;;;;;;5074408;28;20131;-40
2023/06/27 11:57:47;;;;;;;1.95;0.98;;;23.10;70.90;;;;;;5074498;28;20052;-40
2023/06/27 12:00:15;;;;;;;1.83;0.80;;;23.80;70.60;;;;;;5074401;28;20128;-38
2023/06/27 12:02:42;;;;;;;3.08;0.90;;;22.90;70.60;;;;;;5082303;28;20505;-40
2023/06/27 12:05:15;;;;;;;2.83;0.98;;;22.90;70.10;;;;;;5081820;28;20127;-38
2023/06/27 12:07:42;;;;;;;2.78;1.27;;;24.10;70.90;;;;;;5093974;28;20466;-40
2023/06/27 12:10:09;;;;;;;3.63;1.30;;;;;;;;;;5093767;28;20144;-36
2023/06/27 12:12:40;;;;;;;6.32;1.48;;;24.00;71.10;;;;;;5082872;28;20072;-39
2023/06/27 12:15:12;;;;;;;7.45;2.10;;;23.70;55.00;;;;;;5074519;28;20123;-36
2023/06/27 12:17:38;;;;;;;7.45;2.00;;;23.20;70.50;;;;;;5073952;28;20040;-39
2023/06/27 12:20:06;;;;;;;7.22;2.63;;;23.30;70.70;;;;;;5073999;28;20496;-40
2023/06/27 12:22:33;;;;;;;9.20;2.95;;;23.40;70.60;;;;;;5073716;28;20132;-38
2023/06/27 12:25:00;;;;;;;14.05;3.47;;;23.30;70.50;;;;;;5074008;28;20412;-39
2023/06/27 12:27:27;;;;;;;10.25;3.20;;;23.20;70.40;;;;;;5072747;28;20075;-36
2023/06/27 12:29:55;;;;;;;11.93;3.13;;;23.10;71.00;;;;;;5073279;28;20429;-37
2023/06/27 12:32:22;;;;;;;8.93;2.88;;;;;;;;;;5080432;28;20093;-38
2023/06/27 12:34:48;;;;;;;11.05;3.72;;;23.20;70.70;;;;;;5077953;28;20557;-40
2023/06/27 12:37:15;;;;;;;11.02;3.13;;;23.60;71.50;;;;;;5085374;28;20131;-40
2023/06/27 12:39:42;;;;;;;12.57;3.25;;;;;;;;;;5094101;28;20052;-36
2023/06/27 12:42:09;;;;;;;11.07;3.50;;;;;;;;;;5094173;28;20136;-39
2023/06/27 12:44:36;;;;;;;9.75;3.72;;;22.90;60.00;;;;;;5093956;28;20154;-36
2023/06/27 12:47:05;;;;;;;10.15;3.10;;;23.80;71.50;;;;;;5094206;28;20136;-40
2023/06/27 12:49:32;;;;;;;12.52;3.30;;;23.70;72.00;;;;;;5087036;28;20122;-38
2023/06/27 12:51:59;;;;;;;11.02;3.38;;;;;;;;;;5073721;28;20129;-34
2023/06/27 12:54:25;;;;;;;8.40;3.15;;;23.00;70.90;;;;;;5073118;28;20051;-38
2023/06/27 12:56:52;;;;;;;10.57;3.47;;;22.90;70.90;;;;;;5073744;28;20044;-40
2023/06/27 12:59:20;;;;;;;13.38;3.35;;;22.90;59.40;;;;;;5073290;28;20528;-40
2023/06/27 13:01:56;;;;;;;13.60;3.33;;;23.10;60.10;;;;;;5075824;28;20048;-40
2023/06/27 13:04:24;;;;;;;11.25;3.17;;;23.10;55.30;;;;;;5072867;28;20097;-40
2023/06/27 13:06:50;;;;;;;11.05;3.30;;;22.80;70.70;;;;;;5080022;28;20050;-40
2023/06/27 13:09:17;;;;;;;10.90;3.30;;;22.90;60.80;;;;;;5080625;28;20040;-39